createdAt,value
2019-05-06T00:01:15.002Z,6.30
2019-05-06T00:03:44.311Z,5.80
2019-05-06T00:06:14.516Z,5.70
2019-05-06T00:08:44.027Z,6.13
2019-05-06T00:11:14.176Z,6.17
2019-05-06T00:13:44.510Z,5.40
2019-05-06T00:16:14.441Z,5.70
2019-05-06T00:18:44.902Z,4.60
2019-05-06T00:21:14.820Z,4.03
2019-05-06T00:23:54.680Z,4.43
2019-05-06T00:26:41.067Z,5.20
2019-05-06T00:29:13.981Z,5.20
2019-05-06T00:31:44.001Z,4.43
2019-05-06T00:34:13.856Z,4.80
2019-05-06T00:36:43.624Z,6.10
2019-05-06T00:39:31.083Z,5.60
2019-05-06T00:42:05.488Z,4.90
2019-05-06T00:44:34.732Z,5.40
2019-05-06T00:47:04.335Z,6.03
2019-05-06T00:49:34.422Z,4.87
2019-05-06T00:52:04.259Z,5.03
2019-05-06T00:54:34.148Z,4.33
2019-05-06T00:57:03.657Z,4.83
2019-05-06T00:59:34.518Z,4.40
2019-05-06T01:02:04.610Z,5.27
2019-05-06T01:04:33.996Z,5.40
2019-05-06T01:07:03.895Z,5.53
2019-05-06T01:09:34.502Z,4.97
2019-05-06T01:12:04.929Z,5.67
2019-05-06T01:14:38.733Z,6.17
2019-05-06T01:17:07.796Z,5.57
2019-05-06T01:19:37.273Z,5.20
2019-05-06T01:22:06.427Z,5.20
2019-05-06T01:24:35.587Z,5.43
2019-05-06T01:27:04.775Z,5.43
2019-05-06T01:29:34.775Z,5.63
2019-05-06T01:32:04.091Z,5.33
2019-05-06T01:34:34.075Z,6.43
2019-05-06T01:37:03.739Z,6.13
2019-05-06T01:39:54.468Z,5.70
2019-05-06T01:42:29.082Z,5.60
2019-05-06T01:44:58.155Z,8.00
2019-05-06T01:47:27.663Z,6.13
2019-05-06T01:49:56.815Z,6.00
2019-05-06T01:52:25.826Z,6.60
2019-05-06T01:54:54.931Z,5.50
2019-05-06T01:57:24.537Z,5.37
2019-05-06T01:59:54.151Z,5.33
2019-05-06T02:02:23.857Z,5.83
2019-05-06T02:04:54.087Z,5.37
2019-05-06T02:07:24.139Z,4.80
2019-05-06T02:09:54.210Z,6.10
2019-05-06T02:12:24.544Z,5.73
2019-05-06T02:14:54.384Z,5.63
2019-05-06T02:17:23.990Z,6.10
2019-05-06T02:19:54.642Z,5.73
2019-05-06T02:22:34.705Z,5.40
2019-05-06T02:25:17.358Z,5.23
2019-05-06T02:27:46.377Z,4.50
2019-05-06T02:30:40.768Z,6.57
2019-05-06T02:33:35.607Z,6.77
2019-05-06T02:36:14.905Z,6.37
2019-05-06T02:38:50.575Z,5.73
2019-05-06T02:41:14.957Z,5.63
2019-05-06T02:43:44.087Z,5.93
2019-05-06T02:46:13.164Z,6.03
2019-05-06T02:48:54.350Z,6.60
2019-05-06T02:51:25.962Z,6.60
2019-05-06T02:53:55.082Z,5.90
2019-05-06T02:56:24.265Z,6.50
2019-05-06T02:58:53.875Z,5.73
2019-05-06T03:01:23.447Z,5.57
2019-05-06T03:03:53.666Z,6.27
2019-05-06T03:06:23.741Z,5.50
2019-05-06T03:08:54.468Z,6.17
2019-05-06T03:11:24.137Z,6.40
2019-05-06T03:13:53.868Z,6.33
2019-05-06T03:16:23.896Z,5.63
2019-05-06T03:18:53.481Z,6.30
2019-05-06T03:21:54.647Z,6.37
2019-05-06T03:24:33.629Z,5.90
2019-05-06T03:27:04.535Z,6.70
2019-05-06T03:29:33.776Z,5.70
2019-05-06T03:32:06.971Z,7.77
2019-05-06T03:34:57.137Z,6.40
2019-05-06T03:37:07.515Z,6.43
2019-05-06T03:39:35.540Z,6.90
2019-05-06T03:42:05.023Z,5.80
2019-05-06T03:44:36.247Z,6.20
2019-05-06T03:47:36.351Z,6.47
2019-05-06T03:50:06.541Z,6.57
2019-05-06T03:52:35.716Z,6.70
2019-05-06T03:55:04.882Z,5.97
2019-05-06T03:57:36.161Z,6.60
2019-05-06T04:00:06.422Z,6.37
2019-05-06T04:02:39.515Z,7.93
2019-05-06T04:05:06.970Z,29.60
2019-05-06T04:07:36.762Z,12.23
2019-05-06T04:10:06.473Z,10.30
2019-05-06T04:12:37.389Z,8.53
2019-05-06T04:15:07.457Z,7.23
2019-05-06T04:17:57.691Z,10.10
2019-05-06T04:20:52.944Z,6.33
2019-05-06T04:23:43.700Z,6.17
2019-05-06T04:26:19.114Z,6.57
2019-05-06T04:28:48.333Z,6.77
2019-05-06T04:31:17.499Z,7.50
2019-05-06T04:34:07.263Z,6.93
2019-05-06T04:36:17.610Z,6.80
2019-05-06T04:38:46.785Z,6.43
2019-05-06T04:41:16.028Z,8.63
2019-05-06T04:43:45.171Z,9.27
2019-05-06T04:46:17.041Z,8.83
2019-05-06T04:48:45.275Z,13.53
2019-05-06T04:51:14.518Z,20.80
2019-05-06T04:53:44.316Z,12.57
2019-05-06T04:56:14.495Z,41.53
2019-05-06T04:58:43.771Z,10.77
2019-05-06T05:01:15.672Z,7.13
2019-05-06T05:03:43.744Z,6.57
2019-05-06T05:06:13.592Z,6.00
2019-05-06T05:08:43.337Z,6.77
2019-05-06T05:11:22.717Z,6.57
2019-05-06T05:14:21.118Z,7.70
2019-05-06T05:17:06.704Z,8.10
2019-05-06T05:19:36.111Z,7.57
2019-05-06T05:22:08.038Z,8.03
2019-05-06T05:24:37.712Z,8.83
2019-05-06T05:27:07.128Z,10.20
2019-05-06T05:29:36.339Z,10.43
2019-05-06T05:32:05.785Z,9.77
2019-05-06T05:34:39.971Z,9.20
2019-05-06T05:37:06.104Z,10.40
2019-05-06T05:39:35.378Z,10.00
2019-05-06T05:42:23.866Z,10.53
2019-05-06T05:44:53.740Z,8.77
2019-05-06T05:47:22.945Z,5.70
2019-05-06T05:50:29.181Z,7.10
2019-05-06T05:52:58.341Z,6.33
2019-05-06T05:55:27.759Z,5.90
2019-05-06T05:57:57.198Z,7.00
2019-05-06T06:00:28.092Z,6.60
2019-05-06T06:02:57.212Z,9.57
2019-05-06T06:05:26.388Z,8.93
2019-05-06T06:07:55.531Z,6.43
2019-05-06T06:10:37.355Z,7.60
2019-05-06T06:13:06.791Z,10.50
2019-05-06T06:15:53.471Z,17.23
2019-05-06T06:18:48.898Z,12.50
2019-05-06T06:21:37.099Z,14.00
2019-05-06T06:24:32.212Z,8.67
2019-05-06T06:27:03.099Z,9.90
2019-05-06T06:29:32.997Z,20.00
2019-05-06T06:32:32.430Z,23.30
2019-05-06T06:35:23.041Z,13.67
2019-05-06T06:38:03.149Z,11.47
2019-05-06T06:40:33.406Z,11.80
2019-05-06T06:43:06.611Z,15.57
2019-05-06T06:45:36.548Z,6.80
2019-05-06T06:48:06.028Z,6.60
2019-05-06T06:50:35.290Z,5.50
2019-05-06T06:53:04.511Z,6.60
2019-05-06T06:55:33.582Z,6.50
2019-05-06T06:58:19.285Z,5.80
2019-05-06T07:01:15.371Z,6.27
2019-05-06T07:03:59.651Z,6.33
2019-05-06T07:06:39.922Z,4.40
2019-05-06T07:09:09.292Z,6.10
2019-05-06T07:11:38.500Z,5.30
2019-05-06T07:14:07.711Z,6.00
2019-05-06T07:16:37.084Z,5.27
2019-05-06T07:19:06.323Z,7.20
2019-05-06T07:21:43.730Z,6.10
2019-05-06T07:24:13.290Z,4.90
2019-05-06T07:26:53.315Z,4.77
2019-05-06T07:29:26.331Z,5.23
2019-05-06T07:31:53.585Z,6.93
2019-05-06T07:34:22.980Z,5.70
2019-05-06T07:36:52.650Z,6.90
2019-05-06T07:39:24.015Z,3.27
2019-05-06T07:41:55.294Z,5.70
2019-05-06T07:44:53.009Z,7.70
2019-05-06T07:47:26.935Z,6.37
2019-05-06T07:49:56.339Z,7.70
2019-05-06T07:52:25.350Z,6.67
2019-05-06T07:54:54.489Z,5.90
2019-05-06T07:57:23.828Z,6.40
2019-05-06T07:59:52.962Z,6.50
2019-05-06T08:02:22.971Z,5.73
2019-05-06T08:04:53.202Z,3.90
2019-05-06T08:07:22.557Z,4.43
2019-05-06T08:09:52.911Z,3.57
2019-05-06T08:12:22.467Z,3.03
2019-05-06T08:14:52.386Z,3.60
2019-05-06T08:17:29.605Z,4.27
2019-05-06T08:19:58.678Z,4.40
2019-05-06T08:22:49.742Z,4.30
2019-05-06T08:25:18.832Z,3.80
2019-05-06T08:27:49.602Z,3.73
2019-05-06T08:30:18.972Z,4.27
2019-05-06T08:32:48.135Z,4.60
2019-05-06T08:35:18.403Z,3.43
2019-05-06T08:37:48.312Z,4.27
2019-05-06T08:40:17.795Z,4.53
2019-05-06T08:42:46.866Z,3.20
2019-05-06T08:45:16.094Z,4.17
2019-05-06T08:47:45.179Z,4.07
2019-05-06T08:50:43.485Z,4.50
2019-05-06T08:53:24.231Z,3.60
2019-05-06T08:55:53.585Z,3.70
2019-05-06T08:58:43.165Z,2.30
2019-05-06T09:01:14.745Z,3.67
2019-05-06T09:03:43.897Z,15.43
2019-05-06T09:06:26.513Z,3.83
2019-05-06T09:08:43.908Z,3.50
2019-05-06T09:11:13.072Z,3.50
2019-05-06T09:13:42.901Z,4.03
2019-05-06T09:16:12.990Z,2.70
2019-05-06T09:18:42.799Z,3.17
2019-05-06T09:21:12.278Z,5.10
2019-05-06T09:23:42.373Z,3.73
2019-05-06T09:26:13.727Z,3.20
2019-05-06T09:28:57.791Z,4.27
2019-05-06T09:31:38.400Z,2.40
2019-05-06T09:34:18.847Z,5.13
2019-05-06T09:36:52.724Z,3.87
2019-05-06T09:39:22.810Z,5.77
2019-05-06T09:41:57.786Z,6.50
2019-05-06T09:44:22.692Z,5.70
2019-05-06T09:46:53.131Z,5.60
2019-05-06T09:49:24.194Z,5.07
2019-05-06T09:51:54.704Z,3.93
2019-05-06T09:54:32.169Z,4.20
2019-05-06T09:57:08.355Z,4.07
2019-05-06T09:59:37.526Z,4.43
2019-05-06T10:02:06.744Z,2.70
2019-05-06T10:04:35.826Z,3.73
2019-05-06T10:07:05.088Z,4.13
2019-05-06T10:09:34.311Z,4.77
2019-05-06T10:12:03.502Z,2.63
2019-05-06T10:14:32.684Z,3.43
2019-05-06T10:17:04.381Z,3.83
2019-05-06T10:19:32.941Z,3.30
2019-05-06T10:22:03.547Z,4.50
2019-05-06T10:24:32.858Z,4.53
2019-05-06T10:27:02.651Z,3.80
2019-05-06T10:29:39.875Z,4.33
2019-05-06T10:32:34.068Z,6.40
2019-05-06T10:35:03.293Z,6.30
2019-05-06T10:37:43.888Z,6.07
2019-05-06T10:40:22.667Z,4.37
2019-05-06T10:43:02.710Z,4.60
2019-05-06T10:45:32.623Z,3.13
2019-05-06T10:48:02.405Z,3.57
2019-05-06T10:50:35.243Z,4.17
2019-05-06T10:53:18.400Z,4.03
2019-05-06T10:55:53.338Z,7.60
2019-05-06T10:58:22.589Z,4.67
2019-05-06T11:00:58.247Z,5.23
2019-05-06T11:03:27.836Z,6.37
2019-05-06T11:05:57.255Z,5.37
2019-05-06T11:08:26.472Z,4.20
2019-05-06T11:10:55.581Z,3.67
2019-05-06T11:13:24.779Z,3.80
2019-05-06T11:15:55.568Z,4.13
2019-05-06T11:18:24.708Z,3.93
2019-05-06T11:20:56.198Z,4.80
2019-05-06T11:23:24.989Z,5.87
2019-05-06T11:25:54.431Z,4.50
2019-05-06T11:28:45.956Z,7.30
2019-05-06T11:31:33.260Z,4.63
2019-05-06T11:34:32.474Z,6.27
2019-05-06T11:37:23.182Z,4.27
2019-05-06T11:39:52.847Z,4.43
2019-05-06T11:42:29.027Z,3.60
2019-05-06T11:44:53.450Z,3.97
2019-05-06T11:47:23.297Z,3.40
2019-05-06T11:49:56.364Z,6.27
2019-05-06T11:52:25.623Z,4.40
2019-05-06T11:54:54.764Z,5.27
2019-05-06T11:57:23.955Z,6.00
2019-05-06T11:59:53.018Z,6.00
2019-05-06T12:02:23.285Z,4.90
2019-05-06T12:04:52.941Z,3.90
2019-05-06T12:07:24.450Z,9.00
2019-05-06T12:09:53.955Z,11.80
2019-05-06T12:12:23.519Z,5.33
2019-05-06T12:14:52.867Z,6.63
2019-05-06T12:17:22.432Z,3.83
2019-05-06T12:19:52.765Z,3.60
2019-05-06T12:22:23.699Z,4.20
2019-05-06T12:24:52.843Z,3.60
2019-05-06T12:27:39.756Z,3.50
2019-05-06T12:30:09.039Z,2.77
2019-05-06T12:32:43.401Z,2.77
2019-05-06T12:35:13.237Z,3.67
2019-05-06T12:37:44.338Z,4.37
2019-05-06T12:40:13.516Z,3.53
2019-05-06T12:42:46.901Z,3.60
2019-05-06T12:45:37.758Z,3.97
2019-05-06T12:48:18.170Z,4.00
2019-05-06T12:50:47.249Z,3.40
2019-05-06T12:53:16.396Z,3.70
2019-05-06T12:55:45.588Z,3.03
2019-05-06T12:58:19.996Z,3.30
2019-05-06T13:00:46.414Z,2.67
2019-05-06T13:03:15.525Z,2.53
2019-05-06T13:05:44.662Z,2.50
2019-05-06T13:08:20.360Z,2.63
2019-05-06T13:10:44.633Z,5.27
2019-05-06T13:13:13.763Z,4.20
2019-05-06T13:15:43.574Z,2.77
2019-05-06T13:18:12.686Z,2.73
2019-05-06T13:20:49.946Z,3.40
2019-05-06T13:23:24.691Z,2.60
2019-05-06T13:25:52.789Z,9.03
2019-05-06T13:28:23.988Z,4.30
2019-05-06T13:30:53.308Z,3.60
2019-05-06T13:33:36.131Z,2.90
2019-05-06T13:36:05.361Z,3.30
2019-05-06T13:38:34.469Z,2.77
2019-05-06T13:41:03.532Z,3.07
2019-05-06T13:43:36.715Z,2.60
2019-05-06T13:46:12.347Z,2.60
2019-05-06T13:48:46.511Z,3.00
2019-05-06T13:51:17.765Z,3.10
2019-05-06T13:53:46.895Z,3.30
2019-05-06T13:56:16.036Z,3.10
2019-05-06T13:58:45.063Z,4.13
2019-05-06T14:01:17.181Z,3.60
2019-05-06T14:03:46.295Z,3.23
2019-05-06T14:06:15.501Z,6.30
2019-05-06T14:08:44.716Z,6.17
2019-05-06T14:11:13.820Z,4.70
2019-05-06T14:13:42.926Z,5.17
2019-05-06T14:16:13.054Z,4.30
2019-05-06T14:18:42.831Z,3.53
2019-05-06T14:21:13.021Z,4.63
2019-05-06T14:23:42.206Z,4.50
2019-05-06T14:26:33.243Z,3.57
2019-05-06T14:29:20.607Z,4.10
2019-05-06T14:31:52.484Z,4.97
2019-05-06T14:34:22.946Z,4.50
2019-05-06T14:36:53.349Z,2.90
2019-05-06T14:39:42.926Z,4.70
2019-05-06T14:41:57.523Z,7.03
2019-05-06T14:44:26.730Z,5.97
2019-05-06T14:47:13.332Z,3.77
2019-05-06T14:49:43.201Z,3.30
2019-05-06T14:52:13.573Z,2.80
2019-05-06T14:54:57.911Z,2.80
2019-05-06T14:57:27.119Z,3.43
2019-05-06T14:59:56.263Z,2.20
2019-05-06T15:02:27.553Z,3.53
2019-05-06T15:04:56.784Z,2.80
2019-05-06T15:07:25.868Z,4.20
2019-05-06T15:10:08.050Z,2.90
2019-05-06T15:12:26.000Z,3.90
2019-05-06T15:14:56.207Z,4.43
2019-05-06T15:17:25.352Z,3.30
2019-05-06T15:19:54.532Z,3.97
2019-05-06T15:22:23.838Z,3.70
2019-05-06T15:24:53.821Z,3.17
2019-05-06T15:27:23.109Z,3.20
2019-05-06T15:29:55.564Z,3.40
2019-05-06T15:32:29.248Z,3.17
2019-05-06T15:35:22.176Z,4.07
2019-05-06T15:38:02.105Z,3.00
2019-05-06T15:40:33.906Z,2.40
2019-05-06T15:43:02.257Z,3.43
2019-05-06T15:45:32.461Z,3.23
2019-05-06T15:48:02.648Z,4.37
2019-05-06T15:50:32.860Z,4.43
2019-05-06T15:53:03.275Z,4.77
2019-05-06T15:55:32.794Z,4.50
2019-05-06T15:58:03.482Z,3.50
2019-05-06T16:00:33.314Z,3.50
2019-05-06T16:03:02.815Z,3.20
2019-05-06T16:05:34.328Z,3.60
2019-05-06T16:08:03.027Z,3.67
2019-05-06T16:10:37.868Z,13.90
2019-05-06T16:13:02.889Z,4.73
2019-05-06T16:15:33.495Z,4.13
2019-05-06T16:18:04.408Z,3.53
2019-05-06T16:20:33.930Z,2.50
2019-05-06T16:23:17.838Z,3.50
2019-05-06T16:25:48.040Z,2.60
2019-05-06T16:28:17.186Z,2.67
2019-05-06T16:30:46.315Z,3.20
2019-05-06T16:33:18.795Z,4.07
2019-05-06T16:35:46.163Z,2.90
2019-05-06T16:38:15.252Z,3.60
2019-05-06T16:40:45.472Z,3.20
2019-05-06T16:43:14.550Z,2.80
2019-05-06T16:45:45.437Z,4.20
2019-05-06T16:48:14.428Z,4.03
2019-05-06T16:50:43.543Z,3.53
2019-05-06T16:53:12.876Z,3.00
2019-05-06T16:56:05.589Z,3.10
2019-05-06T16:58:37.396Z,8.23
2019-05-06T17:01:06.900Z,5.00
2019-05-06T17:03:56.491Z,27.90
2019-05-06T17:06:28.389Z,2.80
2019-05-06T17:08:57.481Z,2.80
2019-05-06T17:11:30.854Z,2.60
2019-05-06T17:14:03.061Z,3.20
2019-05-06T17:16:34.027Z,3.83
2019-05-06T17:19:03.478Z,3.87
2019-05-06T17:21:33.410Z,3.63
2019-05-06T17:24:02.695Z,3.20
2019-05-06T17:26:33.806Z,3.10
2019-05-06T17:29:14.043Z,3.07
2019-05-06T17:31:53.037Z,3.83
2019-05-06T17:34:26.066Z,4.77
2019-05-06T17:36:57.708Z,3.87
2019-05-06T17:39:26.867Z,3.40
2019-05-06T17:41:55.881Z,3.30
2019-05-06T17:44:25.241Z,2.97
2019-05-06T17:47:12.128Z,3.20
2019-05-06T17:49:42.233Z,3.83
2019-05-06T17:52:15.630Z,4.67
2019-05-06T17:54:44.866Z,3.30
2019-05-06T17:57:14.030Z,3.80
2019-05-06T17:59:43.224Z,3.30
2019-05-06T18:02:15.065Z,4.43
2019-05-06T18:04:44.165Z,2.90
2019-05-06T18:07:13.451Z,3.80
2019-05-06T18:09:42.768Z,4.03
2019-05-06T18:12:12.228Z,2.87
2019-05-06T18:14:43.541Z,3.10
2019-05-06T18:17:12.568Z,4.13
2019-05-06T18:19:41.703Z,4.40
2019-05-06T18:22:12.988Z,10.50
2019-05-06T18:24:41.791Z,12.70
2019-05-06T18:27:12.905Z,12.80
2019-05-06T18:29:42.355Z,8.93
2019-05-06T18:32:12.660Z,6.40
2019-05-06T18:34:41.953Z,6.73
2019-05-06T18:37:12.779Z,10.20
2019-05-06T18:39:42.476Z,10.20
2019-05-06T18:42:19.149Z,9.47
2019-05-06T18:44:42.723Z,9.07
2019-05-06T18:47:12.338Z,10.57
2019-05-06T18:49:42.710Z,20.37
2019-05-06T18:52:13.234Z,27.37
2019-05-06T18:54:43.287Z,23.33
2019-05-06T18:57:13.077Z,26.80
2019-05-06T18:59:42.623Z,21.53
2019-05-06T19:02:13.207Z,26.90
2019-05-06T19:04:53.319Z,13.67
2019-05-06T19:07:22.522Z,19.20
2019-05-06T19:09:59.654Z,9.37
2019-05-06T19:12:36.749Z,9.80
2019-05-06T19:14:59.774Z,6.40
2019-05-06T19:17:28.915Z,7.30
2019-05-06T19:19:57.989Z,5.40
2019-05-06T19:22:27.352Z,4.77
2019-05-06T19:24:56.418Z,5.60
2019-05-06T19:27:25.503Z,7.17
2019-05-06T19:29:54.805Z,6.47
2019-05-06T19:32:24.228Z,11.10
2019-05-06T19:34:53.383Z,16.40
2019-05-06T19:37:23.322Z,5.30
2019-05-06T19:39:52.745Z,5.97
2019-05-06T19:42:22.457Z,6.03
2019-05-06T19:44:52.754Z,6.17
2019-05-06T19:47:22.421Z,5.00
2019-05-06T19:49:53.211Z,6.33
2019-05-06T19:52:22.525Z,5.03
2019-05-06T19:54:52.420Z,5.90
2019-05-06T19:57:21.491Z,6.27
2019-05-06T19:59:52.149Z,5.67
2019-05-06T20:02:25.483Z,7.20
2019-05-06T20:04:56.199Z,6.27
2019-05-06T20:07:56.256Z,6.27
2019-05-06T20:10:42.899Z,6.97
2019-05-06T20:13:13.535Z,7.17
2019-05-06T20:15:42.960Z,7.10
2019-05-06T20:18:12.132Z,6.73
2019-05-06T20:20:42.393Z,7.37
2019-05-06T20:23:12.601Z,6.43
2019-05-06T20:25:44.414Z,6.20
2019-05-06T20:28:13.264Z,6.23
2019-05-06T20:30:42.516Z,6.00
2019-05-06T20:33:12.528Z,4.93
2019-05-06T20:35:43.250Z,6.20
2019-05-06T20:38:12.703Z,4.50
2019-05-06T20:40:43.117Z,5.90
2019-05-06T20:43:20.210Z,6.67
2019-05-06T20:45:43.509Z,6.00
2019-05-06T20:48:13.025Z,6.07
2019-05-06T20:50:42.916Z,5.90
2019-05-06T20:53:12.348Z,5.77
2019-05-06T20:55:43.334Z,5.40
2019-05-06T20:58:12.490Z,4.80
2019-05-06T21:00:43.021Z,5.60
2019-05-06T21:03:12.458Z,5.60
2019-05-06T21:05:43.500Z,5.67
2019-05-06T21:08:12.988Z,5.77
2019-05-06T21:10:42.970Z,5.70
2019-05-06T21:13:13.328Z,5.93
2019-05-06T21:15:43.359Z,5.57
2019-05-06T21:18:12.664Z,5.10
2019-05-06T21:20:43.583Z,5.47
2019-05-06T21:23:12.378Z,5.30
2019-05-06T21:25:43.056Z,5.10
2019-05-06T21:28:12.427Z,6.30
2019-05-06T21:30:42.862Z,5.47
2019-05-06T21:33:12.515Z,5.13
2019-05-06T21:35:42.390Z,17.53
2019-05-06T21:38:12.171Z,6.60
2019-05-06T21:40:43.425Z,12.83
2019-05-06T21:43:13.056Z,15.00
2019-05-06T21:45:42.602Z,9.03
2019-05-06T21:48:13.636Z,17.70
2019-05-06T21:50:42.774Z,16.73
2019-05-06T21:53:14.331Z,8.80
2019-05-06T21:55:42.897Z,6.07
2019-05-06T21:58:12.539Z,6.90
2019-05-06T22:00:55.774Z,7.33
2019-05-06T22:03:24.951Z,9.93
2019-05-06T22:05:54.662Z,6.23
2019-05-06T22:08:23.992Z,9.00
2019-05-06T22:10:53.063Z,5.17
2019-05-06T22:13:22.141Z,7.30
2019-05-06T22:15:51.310Z,6.13
2019-05-06T22:18:22.740Z,6.43
2019-05-06T22:21:25.506Z,7.80
2019-05-06T22:23:56.152Z,6.13
2019-05-06T22:26:25.507Z,5.57
2019-05-06T22:28:54.866Z,8.60
2019-05-06T22:31:24.832Z,7.87
2019-05-06T22:33:54.251Z,5.93
2019-05-06T22:36:23.527Z,6.13
2019-05-06T22:38:53.227Z,7.53
2019-05-06T22:41:24.853Z,6.67
2019-05-06T22:43:53.387Z,8.93
2019-05-06T22:46:23.570Z,7.70
2019-05-06T22:48:54.513Z,8.17
2019-05-06T22:51:23.720Z,6.43
2019-05-06T22:53:53.365Z,6.33
2019-05-06T22:56:23.038Z,6.80
2019-05-06T22:58:52.625Z,6.67
2019-05-06T23:01:43.186Z,9.23
2019-05-06T23:04:13.231Z,11.23
2019-05-06T23:06:42.226Z,9.13
2019-05-06T23:09:11.290Z,6.20
2019-05-06T23:11:42.267Z,7.30
2019-05-06T23:14:12.396Z,5.43
2019-05-06T23:16:42.481Z,11.80
2019-05-06T23:19:11.630Z,6.73
2019-05-06T23:21:42.917Z,8.17
2019-05-06T23:24:13.149Z,10.30
2019-05-06T23:26:42.403Z,7.17
2019-05-06T23:29:12.907Z,9.20
2019-05-06T23:31:42.602Z,6.70
2019-05-06T23:34:12.556Z,6.10
2019-05-06T23:37:17.417Z,6.40
2019-05-06T23:40:22.363Z,6.30
2019-05-06T23:43:27.094Z,6.00
2019-05-06T23:46:32.451Z,6.60
2019-05-06T23:49:37.088Z,5.53
2019-05-06T23:52:42.070Z,7.10
2019-05-06T23:55:46.600Z,6.43
2019-05-06T23:58:14.696Z,6.23
